Flight Track Log - Related Links

Times and Time Zones

All times are in EDT time to prevent confusion due to time zone crossing. See the N2024Y flight status page for this flight to view local times or setup timezone preferences in your user account.

Time Position Orientation Groundspeed Altitude Reporting Facility
EDT Latitude Longitude Course Direction KTS MPH feet Rate Location/Type
Wed 07:29:51 PM 29.0553 -80.9258 350° North 81 93 700  Level Jacksonville Center
Wed 07:30:58 PM 29.0736 -80.9017 49° Northeast 87 100 1,300 563 Climbing Jacksonville Center
Wed 07:31:59 PM 29.0967 -80.9108 341° North 87 100 1,900 609 Climbing Jacksonville Center
Wed 07:33:06 PM 29.1197 -80.9222 337° Northwest 78 90 2,600 563 Climbing Jacksonville Center
Wed 07:34:07 PM 29.1408 -80.9289 345° North 77 89 3,100 446 Climbing Jacksonville Center
Wed 07:35:00 PM 29.1951 -80.9777 350° North  Level Estimated
Wed 07:35:07 PM 29.1597 -80.9381 337° Northwest 72 83 3,500  Level Jacksonville Center
Wed 07:36:08 PM 29.1786 -80.9447 343° North 74 85 3,900 344 Climbing Jacksonville Center
Wed 07:37:09 PM 29.1936 -80.9706 304° West 92 106 4,200 295 Climbing Jacksonville Center
Wed 07:38:10 PM 29.2086 -80.9964 304° West 100 115 4,500 295 Climbing Jacksonville Center
Wed 07:39:11 PM 29.2319 -81.0197 319° Northwest 102 117 4,800 246 Climbing Jacksonville Center
Wed 07:40:12 PM 29.2469 -81.0458 303° West 105 121 5,000 98 Climbing Jacksonville Center
Wed 07:41:13 PM 29.2681 -81.0714 313° West 114 131 5,000 -49 Level Jacksonville Center
Wed 07:42:14 PM 29.2872 -81.0972 310° West 109 125 4,900  Descending Jacksonville Center
Wed 07:43:15 PM 29.3128 -81.1256 316° Northwest 107 123 5,000 52 Climbing Jacksonville Center
Wed 07:44:10 PM 29.3419 -81.1297 353° North 116 133 5,000  Level Jacksonville Center
Wed 07:45:10 PM 29.3733 -81.1292 North 113 130 5,000  Level Jacksonville Center
Wed 07:46:11 PM 29.4006 -81.1358 348° North 111 128 5,000  Level Jacksonville Center
Wed 07:47:12 PM 29.4342 -81.1400 354° North 111 128 5,000 -49 Level Jacksonville Center
Wed 07:48:13 PM 29.4633 -81.1489 345° North 109 125 4,900  Descending Jacksonville Center
Wed 07:49:14 PM 29.4947 -81.1556 350° North 109 125 5,000 50 Climbing Jacksonville Center
Wed 07:50:14 PM 29.5242 -81.1600 353° North 110 127 5,000  Level Jacksonville Center
Wed 07:51:33 PM 29.5639 -81.1664 352° North 112 129 5,000  Level Jacksonville Center
Wed 07:52:21 PM 29.5889 -81.1706 352° North 112 129 5,000  Level Jacksonville Center
Wed 07:53:34 PM 29.6267 -81.1794 348° North 108 124 5,000  Level Jacksonville Center
Wed 07:54:35 PM 29.6539 -81.1861 348° North 110 127 5,000  Level Jacksonville Center
Wed 07:55:24 PM 29.6831 -81.1881 357° North 119 137 5,000 -45 Level Jacksonville Center
Wed 07:56:49 PM 29.7250 -81.1944 352° North 112 129 4,900 -41 Descending Jacksonville Center
Wed 07:57:49 PM 29.7542 -81.2011 349° North 111 128 4,900 62 Level Jacksonville Center
Wed 07:58:26 PM 29.7731 -81.2033 354° North 111 128 5,000 58 Climbing Jacksonville Center
Wed 07:59:33 PM 29.8086 -81.2097 351° North 106 122 5,000  Level Jacksonville Center
Wed 08:00:34 PM 29.8381 -81.2164 349° North 105 121 5,000  Level Jacksonville Center
Wed 08:01:28 PM 29.8631 -81.2208 351° North 105 121 5,000  Level Jacksonville Center
Wed 08:02:29 PM 29.8903 -81.2253 352° North 103 119 5,000  Level Jacksonville Center
Wed 08:03:54 PM 29.9322 -81.2342 350° North 105 121 5,000  Level Jacksonville Center
Wed 08:04:31 PM 29.9489 -81.2361 354° North 105 121 5,000  Level Jacksonville Center
Wed 08:05:32 PM 29.9781 -81.2428 349° North 104 120 5,000  Level Jacksonville Center
Wed 08:06:51 PM 30.0158 -81.2519 348° North 104 120 5,000  Level Jacksonville Center
Wed 08:07:51 PM 30.0450 -81.2536 357° North 110 127 5,000  Level Jacksonville Center
Wed 08:08:58 PM 30.0764 -81.2603 350° North 107 123 5,000  Level Jacksonville Center
Wed 08:09:59 PM 30.1078 -81.2647 353° North 106 122 5,000  Level Jacksonville Center
Wed 08:10:54 PM 30.1353 -81.2739 344° North 108 124 5,000  Level Jacksonville Center
Wed 08:11:36 PM 30.1561 -81.2783 350° North 108 124 5,000  Level Jacksonville Center
Wed 08:12:37 PM 30.1833 -81.2825 352° North 108 124 5,000  Level Jacksonville Center
Wed 08:13:38 PM 30.2147 -81.2892 350° North 105 121 5,000  Level Jacksonville Center
Wed 08:14:45 PM 30.2439 -81.2936 353° North 104 120 5,000  Level Jacksonville Center
Wed 08:15:46 PM 30.2753 -81.3003 350° North 107 123 5,000  Level Jacksonville Center
Wed 08:16:47 PM 30.3067 -81.3069 350° North 104 120 5,000  Level Jacksonville Center
Wed 08:17:47 PM 30.3361 -81.3114 353° North 107 123 5,000  Level Jacksonville Center
Wed 08:18:42 PM 30.3633 -81.3158 352° North 106 122 5,000  Level Jacksonville Center
Wed 08:19:43 PM 30.3906 -81.3225 348° North 107 123 5,000  Level Jacksonville Center
Wed 08:20:44 PM 30.4197 -81.3267 353° North 104 120 5,000  Level Jacksonville Center
Wed 08:21:45 PM 30.4492 -81.3336 349° North 105 121 5,000 -39 Level Jacksonville Center
Wed 08:23:16 PM 30.4931 -81.3400 353° North 114 131 4,900 -40 Descending Jacksonville Center
Wed 08:24:16 PM 30.5203 -81.3469 348° North 109 125 4,900 50 Level Jacksonville Center
Wed 08:25:16 PM 30.5494 -81.3536 349° North 104 120 5,000 50 Climbing Jacksonville Center
Wed 08:26:16 PM 30.5789 -81.3581 353° North 104 120 5,000  Level Jacksonville Center
Wed 08:27:16 PM 30.6081 -81.3622 353° North 104 120 5,000  Level Jacksonville Center
Wed 08:28:16 PM 30.6375 -81.3692 349° North 104 120 5,000  Level Jacksonville Center
Wed 08:29:16 PM 30.6667 -81.3733 353° North 104 120 5,000 -50 Level Jacksonville Center
Wed 08:30:16 PM 30.6961 -81.3778 353° North 104 120 4,900 -50 Descending Jacksonville Center
Wed 08:31:16 PM 30.7253 -81.3847 348° North 104 120 4,900  Level Jacksonville Center
Wed 08:32:16 PM 30.7547 -81.3939 345° North 104 120 4,900  Level Jacksonville Center
Wed 08:33:16 PM 30.7839 -81.4006 349° North 104 120 4,900  Level Jacksonville Center
Wed 08:34:16 PM 30.8131 -81.4025 357° North 104 120 4,900 -50 Level Jacksonville Center
Wed 08:35:16 PM 30.8425 -81.4094 349° North 104 120 4,800 -250 Descending Jacksonville Center
Wed 08:36:16 PM 30.8761 -81.4161 350° North 109 125 4,400 -550 Descending Jacksonville Center
Wed 08:37:16 PM 30.9114 -81.4203 354° North 114 131 3,700 -700 Descending Jacksonville Center
Wed 08:38:16 PM 30.9431 -81.4272 349° North 121 139 3,000 -650 Descending Jacksonville Center
Wed 08:39:16 PM 30.9619 -81.4536 310° West 111 128 2,400 -550 Descending Jacksonville Center
Wed 08:40:16 PM 30.9667 -81.4875 279° West 98 113 1,900 -250 Descending Jacksonville Center
Wed 08:41:16 PM 30.9872 -81.4797 18° North 85 98 1,900  Level Jacksonville Center

Login

Don't have an account? Register now (free) for customized features, flight alerts, and more!